Terminal Aerodrome Forecast
Issued by NWS Grand Forks, ND

Home | Current Version | Previous Version | Text Only | Print | Product List | Glossary On
Versions: 1 2 3 4 5 6 7 8 9 10 11 12 13 14 15
000
FTUS43 KFGF 251120
TAFFAR
TAF
KFAR 251120Z 2512/2612 23005KT P6SM FEW250
     FM251400 25011KT P6SM FEW250
     FM251700 27012G18KT P6SM FEW250
     FM260300 VRB04KT P6SM FEW250=

USA.gov is the U.S. government's official web portal to all federal, state and local government web resources and services.